createdAt,value
2023-02-16T00:00:04.376Z,356
2023-02-16T00:01:04.854Z,356.25
2023-02-16T00:02:04.451Z,355.37
2023-02-16T00:03:04.471Z,355.4
2023-02-16T00:04:04.381Z,354.73
2023-02-16T00:05:04.397Z,354.25
2023-02-16T00:06:04.418Z,354.68
2023-02-16T00:07:04.389Z,355.87
2023-02-16T00:08:04.396Z,355.44
2023-02-16T00:09:04.410Z,356.31
2023-02-16T00:10:04.476Z,356.91
2023-02-16T00:11:04.782Z,357.56
2023-02-16T00:12:04.407Z,358.98
2023-02-16T00:13:04.393Z,359.61
2023-02-16T00:14:04.435Z,359.5
2023-02-16T00:15:04.403Z,360.31
2023-02-16T00:16:04.489Z,361.44
2023-02-16T00:17:04.404Z,361.18
2023-02-16T00:18:04.401Z,361.83
2023-02-16T00:19:04.411Z,362.43
2023-02-16T00:20:04.403Z,362.92
2023-02-16T00:21:05.551Z,362.04
2023-02-16T00:22:04.418Z,362.43
2023-02-16T00:23:04.418Z,361.16
2023-02-16T00:24:04.414Z,359.81
2023-02-16T00:25:04.410Z,358.34
2023-02-16T00:26:04.418Z,357.24
2023-02-16T00:27:04.442Z,356.33
2023-02-16T00:28:04.442Z,354.33
2023-02-16T00:29:04.431Z,353.64
2023-02-16T00:30:04.540Z,353.72
2023-02-16T00:31:04.799Z,352.55
2023-02-16T00:32:07.600Z,351.67
2023-02-16T00:33:04.428Z,351.21
2023-02-16T00:34:04.435Z,350.91
2023-02-16T00:35:04.442Z,350.01
2023-02-16T00:36:04.440Z,349.48
2023-02-16T00:37:04.462Z,349.63
2023-02-16T00:38:04.445Z,349.46
2023-02-16T00:39:04.440Z,348.88
2023-02-16T00:40:04.446Z,348.65
2023-02-16T00:41:04.691Z,349.08
2023-02-16T00:42:04.455Z,348.82
2023-02-16T00:43:07.548Z,348.64
2023-02-16T00:44:04.456Z,348.48
2023-02-16T00:45:04.453Z,348.93
2023-02-16T00:46:04.532Z,347.97
2023-02-16T00:47:04.465Z,348.42
2023-02-16T00:48:04.452Z,348
2023-02-16T00:49:04.465Z,347.55
2023-02-16T00:50:04.463Z,347.37
2023-02-16T00:51:13.867Z,345.78
2023-02-16T00:52:04.470Z,345.14
2023-02-16T00:53:04.467Z,345.37
2023-02-16T00:54:07.323Z,343.75
2023-02-16T00:55:04.484Z,343.79
2023-02-16T00:56:04.469Z,344.96
2023-02-16T00:57:04.502Z,342.92
2023-02-16T00:58:04.474Z,343.21
2023-02-16T00:59:04.478Z,343.38
2023-02-16T01:00:04.478Z,342.63
2023-02-16T01:01:04.764Z,343.52
2023-02-16T01:02:04.549Z,342.17
2023-02-16T01:03:04.490Z,343.78
2023-02-16T01:04:04.513Z,342.65
2023-02-16T01:05:04.503Z,342.23
2023-02-16T01:06:04.481Z,341.31
2023-02-16T01:07:04.505Z,342.03
2023-02-16T01:08:04.483Z,341.95
2023-02-16T01:09:04.486Z,341.83
2023-02-16T01:10:04.526Z,342.01
2023-02-16T01:11:04.942Z,342.29
2023-02-16T01:12:04.518Z,341.94
2023-02-16T01:13:04.489Z,342.23
2023-02-16T01:14:04.494Z,341.68
2023-02-16T01:15:04.495Z,343.52
2023-02-16T01:16:04.534Z,343.31
2023-02-16T01:17:04.759Z,342.42
2023-02-16T01:18:04.531Z,342.42
2023-02-16T01:19:04.507Z,342.42
2023-02-16T01:20:04.506Z,342.1
2023-02-16T01:21:04.724Z,342.51
2023-02-16T01:22:04.534Z,342.29
2023-02-16T01:23:04.523Z,342.27
2023-02-16T01:24:04.512Z,342.32
2023-02-16T01:25:04.526Z,342.05
2023-02-16T01:26:07.592Z,342.31
2023-02-16T01:27:04.531Z,342.26
2023-02-16T01:28:04.511Z,342.48
2023-02-16T01:29:04.513Z,342.44
2023-02-16T01:30:04.564Z,342.63
2023-02-16T01:31:04.881Z,341.74
2023-02-16T01:32:04.632Z,340.87
2023-02-16T01:33:04.520Z,341.09
2023-02-16T01:34:04.555Z,340.4
2023-02-16T01:35:04.533Z,339.97
2023-02-16T01:36:04.530Z,340.68
2023-02-16T01:37:04.602Z,339.24
2023-02-16T01:38:04.543Z,340.08
2023-02-16T01:39:04.532Z,338.77
2023-02-16T01:40:04.539Z,338.56
2023-02-16T01:41:04.827Z,338.55
2023-02-16T01:42:04.575Z,338.32
2023-02-16T01:43:04.559Z,337.2
2023-02-16T01:44:04.542Z,337.62
2023-02-16T01:45:04.539Z,337.72
2023-02-16T01:46:04.574Z,336.5
2023-02-16T01:47:04.677Z,337.03
2023-02-16T01:48:04.544Z,336.52
2023-02-16T01:49:04.553Z,336.09
2023-02-16T01:50:04.610Z,335.9
2023-02-16T01:51:04.784Z,336.38
2023-02-16T01:52:04.697Z,336.02
2023-02-16T01:53:04.557Z,335.92
2023-02-16T01:54:04.560Z,335.31
2023-02-16T01:55:04.593Z,334.55
2023-02-16T01:56:04.564Z,333.9
2023-02-16T01:57:04.640Z,333.02
2023-02-16T01:58:04.561Z,333.47
2023-02-16T01:59:04.563Z,332.57
2023-02-16T02:00:04.594Z,332.4
2023-02-16T02:01:04.854Z,332.21
2023-02-16T02:02:05.611Z,331.02
2023-02-16T02:03:04.615Z,331.22
2023-02-16T02:04:04.587Z,330.78
2023-02-16T02:05:04.579Z,330.36
2023-02-16T02:06:04.595Z,330.81
2023-02-16T02:07:04.607Z,330.09
2023-02-16T02:08:04.584Z,330.06
2023-02-16T02:09:04.579Z,329.75
2023-02-16T02:10:04.586Z,329.74
2023-02-16T02:11:04.837Z,329.31
2023-02-16T02:12:04.612Z,329.58
2023-02-16T02:13:04.656Z,329.68
2023-02-16T02:14:04.592Z,329.19
2023-02-16T02:15:04.596Z,329.62
2023-02-16T02:16:04.699Z,328.72
2023-02-16T02:17:04.626Z,328.53
2023-02-16T02:18:04.595Z,328.05
2023-02-16T02:19:04.606Z,328.26
2023-02-16T02:20:04.597Z,327.36
2023-02-16T02:21:04.811Z,326.84
2023-02-16T02:22:04.660Z,325.74
2023-02-16T02:23:04.599Z,326.07
2023-02-16T02:24:04.612Z,324.87
2023-02-16T02:25:04.602Z,324.33
2023-02-16T02:26:04.606Z,322.97
2023-02-16T02:27:04.637Z,321.86
2023-02-16T02:28:04.618Z,320.2
2023-02-16T02:29:04.614Z,320.27
2023-02-16T02:30:04.643Z,319.17
2023-02-16T02:31:04.942Z,319.37
2023-02-16T02:32:04.780Z,318.03
2023-02-16T02:33:04.614Z,318.06
2023-02-16T02:34:04.634Z,317.23
2023-02-16T02:35:04.640Z,317.4
2023-02-16T02:36:04.639Z,316.76
2023-02-16T02:37:04.645Z,314.92
2023-02-16T02:38:04.650Z,314.69
2023-02-16T02:39:04.632Z,313.61
2023-02-16T02:40:04.633Z,313.16
2023-02-16T02:41:04.862Z,312.69
2023-02-16T02:42:04.695Z,311.98
2023-02-16T02:43:04.644Z,311.56
2023-02-16T02:44:04.635Z,310.62
2023-02-16T02:45:04.642Z,309.93
2023-02-16T02:46:04.640Z,309.54
2023-02-16T02:47:04.724Z,308.95
2023-02-16T02:48:07.767Z,308.35
2023-02-16T02:49:04.654Z,307.2
2023-02-16T02:50:04.653Z,306.98
2023-02-16T02:51:04.978Z,305.67
2023-02-16T02:52:04.683Z,305.62
2023-02-16T02:53:04.674Z,305.01
2023-02-16T02:54:04.687Z,305.19
2023-02-16T02:55:04.652Z,304.3
2023-02-16T02:56:04.667Z,303.39
2023-02-16T02:57:04.677Z,303.36
2023-02-16T02:58:04.661Z,302.71
2023-02-16T02:59:07.483Z,302.55
2023-02-16T03:00:04.669Z,301.82
2023-02-16T03:01:05.164Z,301.16
2023-02-16T03:02:04.741Z,300.67
2023-02-16T03:03:04.674Z,300.64
2023-02-16T03:04:04.671Z,299.43
2023-02-16T03:05:04.675Z,299.91
2023-02-16T03:06:04.680Z,298.77
2023-02-16T03:07:04.703Z,298.3
2023-02-16T03:08:04.673Z,298.3
2023-02-16T03:09:04.678Z,296.88
2023-02-16T03:10:07.502Z,295.5
2023-02-16T03:11:04.931Z,295.52
2023-02-16T03:12:04.697Z,295.35
2023-02-16T03:13:04.685Z,294.42
2023-02-16T03:14:04.682Z,293.56
2023-02-16T03:15:04.710Z,293.05
2023-02-16T03:16:04.774Z,292.53
2023-02-16T03:17:04.749Z,291.86
2023-02-16T03:18:04.693Z,291.46
2023-02-16T03:19:04.696Z,290.96
2023-02-16T03:20:04.710Z,290.05
2023-02-16T03:21:07.711Z,290.06
2023-02-16T03:22:04.720Z,289.53
2023-02-16T03:23:04.702Z,290.06
2023-02-16T03:24:04.702Z,288.89
2023-02-16T03:25:04.696Z,287.87
2023-02-16T03:26:04.732Z,288.61
2023-02-16T03:27:04.760Z,287.85
2023-02-16T03:28:04.698Z,287.26
2023-02-16T03:29:04.710Z,287.24
2023-02-16T03:30:04.803Z,287.02
2023-02-16T03:31:05.042Z,285.39
2023-02-16T03:32:04.866Z,285.14
2023-02-16T03:33:04.715Z,285.02
2023-02-16T03:34:04.747Z,284.03
2023-02-16T03:35:04.729Z,283.99
2023-02-16T03:36:04.721Z,282.64
2023-02-16T03:37:04.776Z,282.41
2023-02-16T03:38:04.715Z,282.92
2023-02-16T03:39:04.776Z,282.18
2023-02-16T03:40:04.717Z,281.6
2023-02-16T03:41:04.990Z,281.42
2023-02-16T03:42:04.798Z,281.77
2023-02-16T03:43:04.727Z,280.76
2023-02-16T03:44:04.731Z,279.18
2023-02-16T03:45:04.724Z,278.77
2023-02-16T03:46:04.778Z,277.42
2023-02-16T03:47:04.757Z,275.57
2023-02-16T03:48:04.734Z,275.1
2023-02-16T03:49:04.743Z,274.26
2023-02-16T03:50:04.731Z,273.18
2023-02-16T03:51:05.019Z,272.52
2023-02-16T03:52:04.766Z,271.85
2023-02-16T03:53:07.790Z,271.86
2023-02-16T03:54:04.743Z,270.26
2023-02-16T03:55:04.743Z,270.55
2023-02-16T03:56:04.752Z,270.05
2023-02-16T03:57:04.768Z,268.48
2023-02-16T03:58:04.789Z,267.12
2023-02-16T03:59:04.748Z,265.87
2023-02-16T04:00:04.757Z,264.18
2023-02-16T04:01:05.080Z,262.98
2023-02-16T04:02:04.926Z,262.55
2023-02-16T04:03:04.758Z,261.44
2023-02-16T04:04:04.768Z,261.86
2023-02-16T04:05:04.768Z,262.61
2023-02-16T04:06:04.765Z,261.27
2023-02-16T04:07:04.790Z,261.23
2023-02-16T04:08:04.790Z,261.02
2023-02-16T04:09:05.803Z,260.11
2023-02-16T04:10:04.775Z,258.5
2023-02-16T04:11:05.087Z,259.52
2023-02-16T04:12:04.805Z,259.1
2023-02-16T04:13:04.771Z,258.39
2023-02-16T04:14:04.827Z,258.47
2023-02-16T04:15:04.775Z,257.91
2023-02-16T04:16:04.779Z,256.49
2023-02-16T04:17:04.864Z,256.75
2023-02-16T04:18:04.798Z,257
2023-02-16T04:19:04.785Z,256.74
2023-02-16T04:20:04.785Z,256.47
2023-02-16T04:21:05.000Z,257.52
2023-02-16T04:22:04.828Z,258.32
2023-02-16T04:23:04.797Z,258.97
2023-02-16T04:24:04.796Z,258.59
2023-02-16T04:25:04.795Z,257.91
2023-02-16T04:26:04.831Z,258.65
2023-02-16T04:27:04.816Z,258.57
2023-02-16T04:28:04.797Z,257.52
2023-02-16T04:29:04.805Z,256.57
2023-02-16T04:30:04.877Z,256.26
2023-02-16T04:31:05.233Z,255.66
2023-02-16T04:32:05.040Z,254.65
2023-02-16T04:33:04.816Z,254.52
2023-02-16T04:34:04.811Z,253.11
2023-02-16T04:35:04.806Z,253.75
2023-02-16T04:36:04.838Z,253.23
2023-02-16T04:37:04.842Z,252.97
2023-02-16T04:38:04.822Z,252.32
2023-02-16T04:39:04.825Z,251.88
2023-02-16T04:40:04.811Z,250.91
2023-02-16T04:41:05.121Z,250.19
2023-02-16T04:42:04.857Z,250
2023-02-16T04:43:04.853Z,249.88
2023-02-16T04:44:04.834Z,249.43
2023-02-16T04:45:04.836Z,248.29
2023-02-16T04:46:04.873Z,247.58
2023-02-16T04:47:04.843Z,246.27
2023-02-16T04:48:04.835Z,245.92
2023-02-16T04:49:04.836Z,245.91
2023-02-16T04:50:04.825Z,244.95
2023-02-16T04:51:05.178Z,244.37
2023-02-16T04:52:04.861Z,244.3
2023-02-16T04:53:04.845Z,244.12
2023-02-16T04:54:04.838Z,242.9
2023-02-16T04:55:04.863Z,242.48
2023-02-16T04:56:04.834Z,242.49
2023-02-16T04:57:04.875Z,241.53
2023-02-16T04:58:04.842Z,241.34
2023-02-16T04:59:04.841Z,240.61
2023-02-16T05:00:04.852Z,240.8
2023-02-16T05:01:05.211Z,241.64
2023-02-16T05:02:04.906Z,241.58
2023-02-16T05:03:04.850Z,241.16
2023-02-16T05:04:04.843Z,240.4
2023-02-16T05:05:04.871Z,240.87
2023-02-16T05:06:04.855Z,240.63
2023-02-16T05:07:04.869Z,241.87
2023-02-16T05:08:04.865Z,241.64
2023-02-16T05:09:04.858Z,242.3
2023-02-16T05:10:04.852Z,242.08
2023-02-16T05:11:05.093Z,243.36
2023-02-16T05:12:04.896Z,242.81
2023-02-16T05:13:04.869Z,243.04
2023-02-16T05:14:04.860Z,244.02
2023-02-16T05:15:07.870Z,243.99
2023-02-16T05:16:04.891Z,245.13
2023-02-16T05:17:04.925Z,245.89
2023-02-16T05:18:04.906Z,247.51
2023-02-16T05:19:04.890Z,249.02
2023-02-16T05:20:04.917Z,252.77
2023-02-16T05:21:05.235Z,254.87
2023-02-16T05:22:04.904Z,256.74
2023-02-16T05:23:05.476Z,257.36
2023-02-16T05:24:04.878Z,258.07
2023-02-16T05:25:04.880Z,258.72
2023-02-16T05:26:07.948Z,259.01
2023-02-16T05:27:04.935Z,259.52
2023-02-16T05:28:04.943Z,259.48
2023-02-16T05:29:04.883Z,259.51
2023-02-16T05:30:04.961Z,259.96
2023-02-16T05:31:05.218Z,260.2
2023-02-16T05:32:05.057Z,260.18
2023-02-16T05:33:04.894Z,260.77
2023-02-16T05:34:04.934Z,260.49
2023-02-16T05:35:04.903Z,260.66
2023-02-16T05:36:04.894Z,261.37
2023-02-16T05:37:06.456Z,261.39
2023-02-16T05:38:04.909Z,262.57
2023-02-16T05:39:04.909Z,262.87
2023-02-16T05:40:04.909Z,263.78
2023-02-16T05:41:05.263Z,263.13
2023-02-16T05:42:04.909Z,262.52
2023-02-16T05:43:04.919Z,262.32
2023-02-16T05:44:04.913Z,264.04
2023-02-16T05:45:04.918Z,262.93
2023-02-16T05:46:04.969Z,261.51
2023-02-16T05:47:04.918Z,262.42
2023-02-16T05:48:07.771Z,262.64
2023-02-16T05:49:04.926Z,263.55
2023-02-16T05:50:05.115Z,263.74
2023-02-16T05:51:05.265Z,263.96
2023-02-16T05:52:04.931Z,266.02
2023-02-16T05:53:05.000Z,266.13
2023-02-16T05:54:04.935Z,266.11
2023-02-16T05:55:04.933Z,267.03
2023-02-16T05:56:07.078Z,267.03
2023-02-16T05:57:04.936Z,267.04
2023-02-16T05:58:04.943Z,267.01
2023-02-16T05:59:04.939Z,267.65
2023-02-16T06:00:04.945Z,267.2
2023-02-16T06:01:05.261Z,267.51
2023-02-16T06:02:04.946Z,266.99
2023-02-16T06:03:04.950Z,266.81
2023-02-16T06:04:05.028Z,267.07
2023-02-16T06:05:04.957Z,267.96
2023-02-16T06:06:05.001Z,268.31
2023-02-16T06:07:04.948Z,268.82
2023-02-16T06:08:04.965Z,268.58
2023-02-16T06:09:04.959Z,269.94
2023-02-16T06:10:04.975Z,269.94
2023-02-16T06:11:05.232Z,270.04
2023-02-16T06:12:05.997Z,270.69
2023-02-16T06:13:04.965Z,271.63
2023-02-16T06:14:04.967Z,272.51
2023-02-16T06:15:04.980Z,272.05
2023-02-16T06:16:05.028Z,272.68
2023-02-16T06:17:04.968Z,272.78
2023-02-16T06:18:04.989Z,272.84
2023-02-16T06:19:04.969Z,272.52
2023-02-16T06:20:08.058Z,273.01
2023-02-16T06:21:05.215Z,273.28
2023-02-16T06:22:05.040Z,272.4
2023-02-16T06:23:04.975Z,273.34
2023-02-16T06:24:05.014Z,273.59
2023-02-16T06:25:04.985Z,273.92
2023-02-16T06:26:05.006Z,275.33
2023-02-16T06:27:04.998Z,275.72
2023-02-16T06:28:04.983Z,275.99
2023-02-16T06:29:05.000Z,275.49
2023-02-16T06:30:05.036Z,276.62
2023-02-16T06:31:08.177Z,277.11
2023-02-16T06:32:05.221Z,276.53
2023-02-16T06:33:04.994Z,276.06
2023-02-16T06:34:05.002Z,275.5
2023-02-16T06:35:05.008Z,275.12
2023-02-16T06:36:05.038Z,275.18
2023-02-16T06:37:08.010Z,276.33
2023-02-16T06:38:05.008Z,276.81
2023-02-16T06:39:05.003Z,276.79
2023-02-16T06:40:05.009Z,277.84
2023-02-16T06:41:05.313Z,279.17
2023-02-16T06:42:05.009Z,279.77
2023-02-16T06:43:05.012Z,281.13
2023-02-16T06:44:05.023Z,281.35
2023-02-16T06:45:05.014Z,283.01
2023-02-16T06:46:05.014Z,285.29
2023-02-16T06:50:05.043Z,295.03
2023-02-16T06:51:05.311Z,296.18
2023-02-16T06:52:05.023Z,297.65
2023-02-16T06:53:05.049Z,299.67
2023-02-16T06:54:05.028Z,300.32
2023-02-16T06:55:05.072Z,301.47
2023-02-16T06:56:05.030Z,302.47
2023-02-16T06:57:05.028Z,303.05
2023-02-16T06:58:05.042Z,303.7
2023-02-16T06:59:05.047Z,304.86
2023-02-16T07:00:05.077Z,305.31
2023-02-16T07:01:05.330Z,305.8
2023-02-16T07:02:05.066Z,305.74
2023-02-16T07:03:05.090Z,306.46
2023-02-16T07:04:05.053Z,307.13
2023-02-16T07:05:05.072Z,308.49
2023-02-16T07:06:05.050Z,309.36
2023-02-16T07:07:05.043Z,310.18
2023-02-16T07:08:05.067Z,312.05
2023-02-16T07:09:05.079Z,313.21
2023-02-16T07:15:05.054Z,321.78
2023-02-16T07:16:05.113Z,323.57
2023-02-16T07:17:05.076Z,324.43
2023-02-16T07:18:05.063Z,325.75
2023-02-16T07:19:05.058Z,326.63
2023-02-16T07:20:05.095Z,328.39
2023-02-16T07:21:05.442Z,329.53
2023-02-16T07:22:05.074Z,331.46
2023-02-16T07:23:05.080Z,334.54
2023-02-16T07:24:05.077Z,337.01
2023-02-16T07:25:05.151Z,339.44
2023-02-16T07:26:05.097Z,342.98
2023-02-16T07:27:05.078Z,346.35
2023-02-16T07:28:05.083Z,348.44
2023-02-16T07:29:05.080Z,350.74
2023-02-16T07:30:05.126Z,354.69
2023-02-16T07:31:05.392Z,358.44
2023-02-16T07:32:05.216Z,363.77
2023-02-16T07:33:05.088Z,366.79
2023-02-16T07:34:05.095Z,371.96
2023-02-16T07:35:05.159Z,377.17
2023-02-16T07:36:05.087Z,383.5
2023-02-16T07:37:05.097Z,387.88
2023-02-16T07:38:05.112Z,394.29
2023-02-16T07:39:05.089Z,400.99
2023-02-16T07:40:05.147Z,406.95
2023-02-16T07:41:07.932Z,412.67
2023-02-16T07:42:08.205Z,418.38
2023-02-16T07:43:05.101Z,422.71
2023-02-16T07:44:05.112Z,426.85
2023-02-16T07:45:05.123Z,430.64
2023-02-16T07:46:05.149Z,434.99
2023-02-16T07:47:05.103Z,438.75
2023-02-16T07:48:05.126Z,443.36
2023-02-16T07:49:05.103Z,446.74
2023-02-16T07:50:05.127Z,451.89
2023-02-16T07:51:05.498Z,456.4
2023-02-16T07:52:05.109Z,459.96
2023-02-16T07:53:07.934Z,460.91
2023-02-16T07:54:05.113Z,461.75
2023-02-16T07:55:05.141Z,462.34
2023-02-16T07:56:05.133Z,465.43
2023-02-16T07:57:05.143Z,468.41
2023-02-16T07:58:05.118Z,473.94
2023-02-16T07:59:05.130Z,480.44
2023-02-16T08:00:05.146Z,484.21
2023-02-16T08:01:05.366Z,487.4
2023-02-16T08:02:05.261Z,490.82
2023-02-16T08:03:05.231Z,494.39
2023-02-16T08:04:08.150Z,499.53
2023-02-16T08:05:05.146Z,505.3
2023-02-16T08:06:05.139Z,511.29
2023-02-16T08:07:05.134Z,519.19
2023-02-16T08:08:05.136Z,526.53
2023-02-16T08:09:05.147Z,532.37
2023-02-16T08:10:05.162Z,540.71
2023-02-16T08:11:05.395Z,547.19
2023-02-16T08:12:05.146Z,552.42
2023-02-16T08:13:05.183Z,558.56
2023-02-16T08:14:05.150Z,564.3
2023-02-16T08:15:08.561Z,571.89
2023-02-16T08:16:05.478Z,579.22
2023-02-16T08:17:05.250Z,586.91
2023-02-16T08:18:05.161Z,594.15
2023-02-16T08:19:05.155Z,602.67
2023-02-16T08:20:05.161Z,611.78
2023-02-16T08:21:05.246Z,621.82
2023-02-16T08:22:05.251Z,632.82
2023-02-16T08:23:05.167Z,643.33
2023-02-16T08:24:05.185Z,653.37
2023-02-16T08:25:06.847Z,663.51
2023-02-16T08:26:05.590Z,673.41
2023-02-16T08:27:05.171Z,683.31
2023-02-16T08:28:05.179Z,692.32
2023-02-16T08:29:05.198Z,701.87
2023-02-16T08:30:05.251Z,710.4
2023-02-16T08:31:05.250Z,719.15
2023-02-16T08:32:05.227Z,727.83
2023-02-16T08:33:05.179Z,736.54
2023-02-16T08:34:05.178Z,745.75
2023-02-16T08:35:05.186Z,752.41
2023-02-16T08:36:05.479Z,760.24
2023-02-16T08:37:05.187Z,766.91
2023-02-16T08:38:05.192Z,773.39
2023-02-16T08:39:05.190Z,778.28
2023-02-16T08:40:05.188Z,783.16
2023-02-16T08:41:05.199Z,788.18
2023-02-16T08:42:05.202Z,790.67
2023-02-16T08:43:05.231Z,792.77
2023-02-16T08:44:05.192Z,795.47
2023-02-16T08:45:05.220Z,798.5
2023-02-16T08:46:05.630Z,800.84
2023-02-16T08:47:08.206Z,802.91
2023-02-16T08:48:05.202Z,801.45
2023-02-16T08:49:05.202Z,800.7
2023-02-16T08:50:05.195Z,801.47
2023-02-16T08:51:05.196Z,803
2023-02-16T08:52:05.206Z,805.07
2023-02-16T08:53:05.209Z,805.25
2023-02-16T08:54:06.011Z,804.35
2023-02-16T08:55:05.206Z,804.52
2023-02-16T08:56:05.541Z,804.97
2023-02-16T08:57:05.214Z,806.66
2023-02-16T08:58:08.062Z,809.03
2023-02-16T08:59:05.213Z,811.69
2023-02-16T09:00:05.213Z,815.34
2023-02-16T09:01:05.290Z,818.55
2023-02-16T09:02:05.234Z,822.3
2023-02-16T09:03:05.239Z,825.06
2023-02-16T09:04:05.235Z,828.66
2023-02-16T09:05:05.217Z,832.36
2023-02-16T09:06:08.206Z,835.85
2023-02-16T09:07:05.243Z,839.62
2023-02-16T09:08:05.224Z,844.39
2023-02-16T09:09:08.320Z,848.56
2023-02-16T09:10:05.223Z,854.17
2023-02-16T09:11:05.528Z,858.18
2023-02-16T09:12:05.228Z,861.68
2023-02-16T09:13:05.221Z,864.93
2023-02-16T09:14:05.243Z,868.02
2023-02-16T09:15:05.222Z,871.76
2023-02-16T09:16:05.587Z,875.57
2023-02-16T09:17:05.338Z,878.03
2023-02-16T09:18:07.989Z,880.61
2023-02-16T09:19:05.235Z,883.22
2023-02-16T09:20:05.265Z,886.63
2023-02-16T09:21:05.240Z,889.26
2023-02-16T09:22:05.253Z,893.02
2023-02-16T09:23:05.240Z,896.85
2023-02-16T09:24:05.235Z,899.63
2023-02-16T09:25:05.248Z,902.43
2023-02-16T09:26:05.668Z,906.6
2023-02-16T09:27:05.245Z,910.25
2023-02-16T09:28:05.239Z,913.73
2023-02-16T09:29:05.244Z,916.73
2023-02-16T09:30:05.267Z,919.03
2023-02-16T09:31:05.385Z,921.22
2023-02-16T09:32:05.255Z,923.41
2023-02-16T09:33:05.285Z,926.93
2023-02-16T09:34:05.265Z,929.81
2023-02-16T09:35:05.284Z,931.96
2023-02-16T09:36:05.667Z,933.42
2023-02-16T09:37:05.259Z,935.72
2023-02-16T09:38:05.265Z,938.33
2023-02-16T09:39:05.275Z,940.5
2023-02-16T09:40:05.263Z,942.75
2023-02-16T09:41:05.282Z,944.5
2023-02-16T09:42:05.274Z,946.44
2023-02-16T09:43:05.269Z,947.67
2023-02-16T09:44:05.265Z,948.93
2023-02-16T09:45:05.272Z,951.69
2023-02-16T09:46:05.577Z,953.35
2023-02-16T09:47:05.269Z,955.8
2023-02-16T09:48:05.277Z,957.92
2023-02-16T09:49:05.304Z,959.45
2023-02-16T09:50:05.273Z,961.65
2023-02-16T09:51:05.309Z,963.7
2023-02-16T09:52:05.277Z,966.78
2023-02-16T09:53:05.284Z,970.13
2023-02-16T09:54:05.281Z,973.51
2023-02-16T09:55:05.289Z,976.26
2023-02-16T09:56:05.537Z,978.56
2023-02-16T09:57:05.292Z,981.11
2023-02-16T09:58:05.297Z,983.1
2023-02-16T09:59:05.290Z,985.18
2023-02-16T10:00:05.296Z,987.23
2023-02-16T10:01:05.368Z,989.19
2023-02-16T10:02:05.363Z,991.54
2023-02-16T10:03:05.303Z,992.69
2023-02-16T10:04:05.310Z,994.15
2023-02-16T10:05:05.333Z,994.84
2023-02-16T10:06:05.689Z,996.19
2023-02-16T10:07:05.300Z,997.24
2023-02-16T10:08:05.309Z,998.77
2023-02-16T10:09:05.426Z,1000.89
2023-02-16T10:10:05.324Z,1003.58
2023-02-16T10:11:05.627Z,1005.87
2023-02-16T10:12:05.310Z,1007.78
2023-02-16T10:13:05.359Z,1010.06
2023-02-16T10:14:05.314Z,1013.08
2023-02-16T10:15:05.326Z,1015.57
2023-02-16T10:16:05.368Z,1017.48
2023-02-16T10:17:05.317Z,1019.4
2023-02-16T10:18:05.327Z,1021.74
2023-02-16T10:19:05.333Z,1023.46
2023-02-16T10:20:08.437Z,1025.45
2023-02-16T10:21:05.679Z,1027.33
2023-02-16T10:22:05.338Z,1028.8
2023-02-16T10:23:05.330Z,1030.15
2023-02-16T10:24:05.347Z,1031.52
2023-02-16T10:25:05.330Z,1032.76
2023-02-16T10:26:05.364Z,1034.72
2023-02-16T10:27:05.346Z,1037.46
2023-02-16T10:28:05.343Z,1040.24
2023-02-16T10:29:05.338Z,1042.64
2023-02-16T10:30:05.374Z,1045.19
2023-02-16T10:31:07.014Z,1047.06
2023-02-16T10:32:05.446Z,1048.77
2023-02-16T10:33:05.351Z,1050.17
2023-02-16T10:34:05.356Z,1050.75
2023-02-16T10:35:05.359Z,1051.77
2023-02-16T10:36:05.373Z,1052.2
2023-02-16T10:37:05.410Z,1052.83
2023-02-16T10:38:05.353Z,1053.65
2023-02-16T10:39:05.357Z,1054.26
2023-02-16T10:40:05.362Z,1055.39
2023-02-16T10:41:05.629Z,1057.12
2023-02-16T10:42:08.453Z,1059.07
2023-02-16T10:43:05.362Z,1061.02
2023-02-16T10:44:05.394Z,1062.69
2023-02-16T10:45:05.368Z,1064.48
2023-02-16T10:46:05.437Z,1066.62
2023-02-16T10:47:05.389Z,1068.33
2023-02-16T10:48:05.377Z,1069.88
2023-02-16T10:49:05.398Z,1070.49
2023-02-16T10:50:05.382Z,1070.95
2023-02-16T10:51:05.575Z,1071.17
2023-02-16T10:52:05.534Z,1071.39
2023-02-16T10:53:05.383Z,1071.82
2023-02-16T10:54:05.387Z,1072.36
2023-02-16T10:55:05.391Z,1073.08
2023-02-16T10:56:05.397Z,1073.88
2023-02-16T10:57:05.435Z,1074.26
2023-02-16T10:58:05.394Z,1074.92
2023-02-16T10:59:05.406Z,1075.79
2023-02-16T11:00:05.423Z,1075.96
2023-02-16T11:01:05.691Z,1076.33
2023-02-16T11:02:05.404Z,1076.41
2023-02-16T11:03:05.406Z,1076.83
2023-02-16T11:04:05.456Z,1076.57
2023-02-16T11:05:05.406Z,1076.49
2023-02-16T11:06:05.775Z,1076.45
2023-02-16T11:07:05.415Z,1077.32
2023-02-16T11:08:05.456Z,1078.13
2023-02-16T11:09:05.419Z,1079.19
2023-02-16T11:10:05.426Z,1079.99
2023-02-16T11:11:05.650Z,1080.39
2023-02-16T11:12:05.441Z,1080.9
2023-02-16T11:13:05.427Z,1081.13
2023-02-16T11:14:09.187Z,1081.35
2023-02-16T11:15:05.429Z,1081.24
2023-02-16T11:16:05.534Z,1081.08
2023-02-16T11:17:05.440Z,1080.95
2023-02-16T11:18:05.444Z,1080.55
2023-02-16T11:19:05.463Z,1080.31
2023-02-16T11:20:05.535Z,1080.6
2023-02-16T11:21:05.717Z,1081.03
2023-02-16T11:22:05.435Z,1081.93
2023-02-16T11:23:05.439Z,1082.55
2023-02-16T11:24:05.469Z,1083.56
2023-02-16T11:25:09.083Z,1084.82
2023-02-16T11:26:05.450Z,1085.9
2023-02-16T11:27:05.453Z,1086.46
2023-02-16T11:28:05.453Z,1087.29
2023-02-16T11:29:05.447Z,1088.34
2023-02-16T11:30:05.504Z,1088.63
2023-02-16T11:31:05.777Z,1089.12
2023-02-16T11:32:05.488Z,1089.15
2023-02-16T11:33:05.529Z,1089.04
2023-02-16T11:34:06.183Z,1087.75
2023-02-16T11:35:05.458Z,1087.24
2023-02-16T11:36:05.562Z,1086.88
2023-02-16T11:37:05.470Z,1086.6
2023-02-16T11:38:05.480Z,1087.03
2023-02-16T11:39:05.478Z,1088.21
2023-02-16T11:40:05.493Z,1089.82
2023-02-16T11:41:05.853Z,1091.23
2023-02-16T11:42:05.468Z,1093.14
2023-02-16T11:43:05.480Z,1095.19
2023-02-16T11:44:05.468Z,1096.29
2023-02-16T11:45:05.476Z,1096.47
2023-02-16T11:46:05.684Z,1097.04
2023-02-16T11:47:05.480Z,1097.86
2023-02-16T11:48:05.472Z,1098.81
2023-02-16T11:49:05.471Z,1098.24
2023-02-16T11:50:05.817Z,1097.55
2023-02-16T11:51:06.602Z,1096.48
2023-02-16T11:52:05.480Z,1095.78
2023-02-16T11:53:05.488Z,1095.22
2023-02-16T11:54:05.499Z,1094.72
2023-02-16T11:55:05.510Z,1094.52
2023-02-16T11:56:05.924Z,1094.44
2023-02-16T11:57:05.533Z,1094.39
2023-02-16T11:58:05.487Z,1094.79
2023-02-16T11:59:05.493Z,1094.81
2023-02-16T12:00:05.492Z,1094.75
2023-02-16T12:01:05.718Z,1094.42
2023-02-16T12:02:05.522Z,1093.82
2023-02-16T12:03:05.530Z,1092.89
2023-02-16T12:04:05.611Z,1092.11
2023-02-16T12:05:05.535Z,1090.8
2023-02-16T12:06:05.510Z,1090.24
2023-02-16T12:07:05.528Z,1089.89
2023-02-16T12:08:05.537Z,1089.74
2023-02-16T12:09:05.547Z,1089.42
2023-02-16T12:10:05.527Z,1089.39
2023-02-16T12:11:05.940Z,1089.55
2023-02-16T12:12:05.572Z,1089.56
2023-02-16T12:13:05.525Z,1089.81
2023-02-16T12:14:05.527Z,1089.87
2023-02-16T12:15:05.527Z,1089.69
2023-02-16T12:16:08.230Z,1089.07
2023-02-16T12:17:05.549Z,1089.32
2023-02-16T12:18:05.581Z,1089.04
2023-02-16T12:19:05.535Z,1089.24
2023-02-16T12:20:05.541Z,1089.03
2023-02-16T12:21:05.560Z,1089.42
2023-02-16T12:22:05.552Z,1090.1
2023-02-16T12:23:05.537Z,1090.55
2023-02-16T12:24:05.534Z,1091.35
2023-02-16T12:25:05.563Z,1091.97
2023-02-16T12:26:05.918Z,1092.52
2023-02-16T12:27:05.560Z,1092.82
2023-02-16T12:28:05.561Z,1093.88
2023-02-16T12:29:05.700Z,1094.71
2023-02-16T12:30:05.577Z,1095.63
2023-02-16T12:31:05.585Z,1096.97
2023-02-16T12:32:05.662Z,1097.99
2023-02-16T12:33:05.554Z,1099.28
2023-02-16T12:34:05.554Z,1100.31